createdAt,value
2023-04-10T00:01:11.589Z,5.33
2023-04-10T00:03:38.890Z,5.67
2023-04-10T00:06:07.511Z,5.50
2023-04-10T00:08:34.481Z,5.30
2023-04-10T00:11:01.659Z,6.07
2023-04-10T00:13:30.384Z,5.50
2023-04-10T00:15:58.103Z,5.03
2023-04-10T00:18:25.319Z,5.60
2023-04-10T00:20:52.614Z,5.60
2023-04-10T00:23:19.840Z,5.33
2023-04-10T00:25:48.881Z,5.83
2023-04-10T00:28:17.268Z,5.47
2023-04-10T00:30:44.213Z,5.90
2023-04-10T00:33:11.283Z,5.47
2023-04-10T00:35:38.571Z,5.83
2023-04-10T00:38:05.731Z,5.67
2023-04-10T00:40:32.880Z,6.03
2023-04-10T00:43:01.079Z,5.50
2023-04-10T00:45:28.123Z,5.80
2023-04-10T00:47:56.060Z,5.30
2023-04-10T00:50:24.594Z,5.60
2023-04-10T00:52:52.083Z,5.43
2023-04-10T00:55:19.443Z,5.73
2023-04-10T00:57:48.048Z,5.50
2023-04-10T01:00:16.804Z,6.20
2023-04-10T01:02:44.174Z,5.70
2023-04-10T01:05:13.298Z,5.10
2023-04-10T01:08:18.806Z,4.70
2023-04-10T01:10:59.737Z,4.70
2023-04-10T01:13:39.357Z,5.20
2023-04-10T01:16:24.857Z,5.17
2023-04-10T01:19:07.093Z,5.33
2023-04-10T01:21:38.332Z,5.37
2023-04-10T01:24:24.037Z,5.03
2023-04-10T01:27:19.694Z,5.30
2023-04-10T01:29:55.985Z,5.73
2023-04-10T01:32:24.584Z,5.33
2023-04-10T01:34:57.236Z,5.50
2023-04-10T01:37:31.469Z,5.30
2023-04-10T01:40:08.400Z,5.27
2023-04-10T01:42:44.850Z,5.40
2023-04-10T01:45:20.992Z,5.60
2023-04-10T01:47:51.827Z,4.97
2023-04-10T01:50:23.987Z,5.37
2023-04-10T01:52:55.089Z,4.73
2023-04-10T01:55:27.515Z,5.70
2023-04-10T01:58:01.487Z,5.43
2023-04-10T02:00:28.893Z,5.40
2023-04-10T02:02:58.326Z,5.10
2023-04-10T02:05:42.690Z,5.63
2023-04-10T02:08:24.796Z,5.53
2023-04-10T02:11:03.485Z,4.87
2023-04-10T02:13:35.722Z,5.70
2023-04-10T02:16:09.024Z,4.73
2023-04-10T02:18:40.862Z,4.97
2023-04-10T02:21:08.566Z,5.40
2023-04-10T02:23:36.994Z,5.00
2023-04-10T02:26:10.881Z,4.77
2023-04-10T02:28:40.870Z,5.17
2023-04-10T02:31:08.186Z,5.07
2023-04-10T02:33:35.710Z,5.37
2023-04-10T02:36:02.747Z,4.83
2023-04-10T02:38:29.746Z,5.00
2023-04-10T02:40:57.630Z,5.00
2023-04-10T02:43:24.784Z,5.23
2023-04-10T02:45:52.151Z,5.03
2023-04-10T02:48:24.766Z,5.43
2023-04-10T02:50:58.413Z,4.90
2023-04-10T02:53:26.639Z,4.97
2023-04-10T02:55:57.474Z,5.03
2023-04-10T02:58:24.519Z,4.93
2023-04-10T03:00:54.705Z,5.00
2023-04-10T03:03:42.981Z,4.90
2023-04-10T03:06:11.115Z,4.73
2023-04-10T03:08:39.838Z,5.00
2023-04-10T03:11:08.991Z,5.30
2023-04-10T03:13:36.046Z,4.90
2023-04-10T03:16:03.039Z,4.50
2023-04-10T03:18:31.968Z,4.97
2023-04-10T03:20:58.963Z,5.80
2023-04-10T03:23:26.052Z,5.27
2023-04-10T03:25:56.207Z,4.87
2023-04-10T03:28:27.882Z,4.63
2023-04-10T03:30:56.617Z,5.17
2023-04-10T03:33:23.606Z,5.57
2023-04-10T03:35:50.982Z,5.50
2023-04-10T03:38:18.015Z,5.63
2023-04-10T03:40:45.045Z,5.10
2023-04-10T03:43:12.047Z,5.30
2023-04-10T03:45:39.192Z,5.50
2023-04-10T03:48:06.699Z,5.60
2023-04-10T03:50:41.867Z,5.33
2023-04-10T03:53:08.948Z,5.77
2023-04-10T03:55:36.935Z,5.90
2023-04-10T03:58:05.671Z,5.10
2023-04-10T04:00:33.467Z,6.07
2023-04-10T04:03:13.970Z,5.57
2023-04-10T04:06:04.613Z,5.50
2023-04-10T04:09:03.521Z,6.37
2023-04-10T04:11:49.395Z,6.77
2023-04-10T04:14:34.719Z,5.47
2023-04-10T04:17:20.312Z,6.13
2023-04-10T04:20:16.631Z,5.77
2023-04-10T04:22:43.764Z,6.07
2023-04-10T04:25:39.158Z,6.17
2023-04-10T04:28:24.527Z,6.57
2023-04-10T04:31:15.080Z,6.30
2023-04-10T04:33:56.262Z,6.13
2023-04-10T04:36:40.449Z,5.47
2023-04-10T04:39:13.046Z,6.20
2023-04-10T04:41:53.356Z,6.77
2023-04-10T04:44:40.782Z,5.90
2023-04-10T04:47:17.156Z,6.33
2023-04-10T04:49:56.506Z,6.43
2023-04-10T04:53:02.263Z,6.53
2023-04-10T04:55:51.882Z,6.77
2023-04-10T04:58:47.072Z,6.40
2023-04-10T05:01:37.261Z,6.33
2023-04-10T05:04:18.162Z,5.70
2023-04-10T05:06:58.461Z,6.47
2023-04-10T05:09:51.724Z,5.80
2023-04-10T05:12:37.027Z,6.30
2023-04-10T05:15:18.504Z,6.00
2023-04-10T05:17:54.854Z,5.63
2023-04-10T05:20:41.763Z,5.50
2023-04-10T05:23:27.963Z,5.70
2023-04-10T05:26:07.301Z,6.07
2023-04-10T05:28:51.115Z,5.67
2023-04-10T05:31:33.079Z,6.70
2023-04-10T05:34:14.535Z,5.97
2023-04-10T05:36:59.434Z,5.43
2023-04-10T05:39:45.346Z,6.30
2023-04-10T05:42:35.476Z,5.67
2023-04-10T05:45:29.164Z,5.73
2023-04-10T05:48:09.090Z,5.40
2023-04-10T05:50:43.109Z,5.73
2023-04-10T05:53:33.146Z,5.37
2023-04-10T05:56:26.493Z,4.80
2023-04-10T05:59:22.443Z,5.33
2023-04-10T06:01:59.017Z,5.67
2023-04-10T06:04:26.374Z,5.07
2023-04-10T06:06:58.166Z,5.73
2023-04-10T06:09:25.714Z,5.33
2023-04-10T06:11:53.572Z,5.60
2023-04-10T06:14:23.170Z,5.67
2023-04-10T06:16:51.488Z,5.03
2023-04-10T06:19:18.445Z,5.20
2023-04-10T06:21:45.577Z,5.53
2023-04-10T06:24:13.860Z,5.33
2023-04-10T06:26:40.850Z,5.13
2023-04-10T06:29:08.136Z,5.47
2023-04-10T06:31:35.402Z,5.50
2023-04-10T06:34:02.653Z,5.20
2023-04-10T06:36:29.997Z,5.43
2023-04-10T06:39:02.830Z,5.40
2023-04-10T06:41:32.986Z,5.13
2023-04-10T06:44:15.283Z,4.83
2023-04-10T06:46:42.316Z,5.23
2023-04-10T06:49:09.210Z,4.77
2023-04-10T06:51:36.633Z,4.90
2023-04-10T06:54:03.887Z,5.00
2023-04-10T06:56:30.978Z,5.47
2023-04-10T06:58:58.232Z,4.90
2023-04-10T07:01:26.487Z,5.57
2023-04-10T07:03:53.778Z,4.80
2023-04-10T07:06:20.794Z,5.03
2023-04-10T07:08:50.034Z,4.60
2023-04-10T07:11:17.353Z,4.60
2023-04-10T07:13:44.295Z,5.07
2023-04-10T07:16:11.434Z,4.37
2023-04-10T07:18:39.062Z,4.90
2023-04-10T07:21:14.653Z,4.57
2023-04-10T07:23:41.552Z,5.10
2023-04-10T07:26:08.655Z,4.63
2023-04-10T07:28:36.510Z,4.83
2023-04-10T07:31:03.460Z,5.43
2023-04-10T07:33:30.617Z,4.93
2023-04-10T07:35:57.861Z,5.20
2023-04-10T07:38:25.584Z,5.00
2023-04-10T07:40:59.302Z,4.87
2023-04-10T07:43:26.728Z,4.43
2023-04-10T07:45:53.694Z,4.67
2023-04-10T07:48:20.871Z,4.80
2023-04-10T07:50:48.141Z,4.57
2023-04-10T07:53:15.692Z,5.10
2023-04-10T07:55:45.639Z,4.47
2023-04-10T07:58:12.577Z,4.23
2023-04-10T08:00:39.617Z,4.83
2023-04-10T08:03:07.440Z,4.43
2023-04-10T08:05:34.683Z,4.53
2023-04-10T08:08:03.225Z,4.90
2023-04-10T08:10:30.397Z,4.63
2023-04-10T08:12:57.291Z,4.90
2023-04-10T08:15:24.422Z,4.32
2023-04-10T08:17:51.401Z,4.70
2023-04-10T08:20:18.563Z,4.90
2023-04-10T08:22:45.702Z,4.97
2023-04-10T08:25:12.917Z,4.70
2023-04-10T08:27:39.843Z,4.47
2023-04-10T08:30:07.914Z,4.25
2023-04-10T08:32:36.030Z,4.65
2023-04-10T08:35:04.485Z,4.90
2023-04-10T08:37:31.571Z,4.70
2023-04-10T08:39:58.816Z,4.82
2023-04-10T08:42:26.365Z,4.88
2023-04-10T08:44:53.422Z,3.97
2023-04-10T08:47:22.941Z,3.90
2023-04-10T08:50:06.934Z,4.43
2023-04-10T08:52:38.027Z,4.00
2023-04-10T08:55:09.304Z,4.32
2023-04-10T08:57:39.097Z,4.88
2023-04-10T09:00:20.216Z,4.28
2023-04-10T09:02:55.180Z,4.40
2023-04-10T09:05:24.068Z,4.38
2023-04-10T09:07:51.399Z,4.38
2023-04-10T09:10:18.455Z,4.47
2023-04-10T09:12:47.517Z,4.40
2023-04-10T09:15:16.244Z,4.63
2023-04-10T09:18:02.619Z,4.00
2023-04-10T09:20:32.620Z,4.28
2023-04-10T09:22:59.974Z,4.30
2023-04-10T09:25:38.824Z,4.30
2023-04-10T09:28:09.814Z,3.85
2023-04-10T09:30:42.718Z,4.28
2023-04-10T09:33:28.543Z,4.03
2023-04-10T09:36:04.064Z,4.10
2023-04-10T09:38:31.249Z,3.90
2023-04-10T09:41:08.654Z,4.13
2023-04-10T09:43:38.983Z,3.65
2023-04-10T09:46:06.643Z,4.10
2023-04-10T09:48:33.586Z,3.88
2023-04-10T09:51:03.188Z,3.90
2023-04-10T09:53:30.300Z,3.60
2023-04-10T09:55:58.064Z,3.83
2023-04-10T09:58:26.500Z,4.10
2023-04-10T10:00:54.094Z,3.65
2023-04-10T10:03:21.575Z,3.53
2023-04-10T10:05:51.822Z,3.70
2023-04-10T10:08:19.824Z,3.38
2023-04-10T10:10:53.350Z,3.60
2023-04-10T10:13:28.209Z,3.40
2023-04-10T10:16:25.661Z,3.15
2023-04-10T10:19:24.683Z,3.30
2023-04-10T10:21:55.347Z,3.50
2023-04-10T10:24:26.453Z,3.30
2023-04-10T10:26:57.288Z,3.22
2023-04-10T10:29:24.658Z,3.38
2023-04-10T10:31:53.170Z,2.80
2023-04-10T10:34:21.781Z,3.42
2023-04-10T10:36:48.657Z,2.70
2023-04-10T10:39:33.215Z,2.80
2023-04-10T10:42:14.257Z,2.70
2023-04-10T10:45:13.706Z,3.00
2023-04-10T10:47:49.194Z,3.10
2023-04-10T10:50:16.327Z,3.40
2023-04-10T10:52:49.629Z,2.95
2023-04-10T10:55:22.421Z,2.72
2023-04-10T10:57:54.050Z,3.10
2023-04-10T11:00:23.362Z,2.83
2023-04-10T11:03:09.015Z,2.88
2023-04-10T11:05:59.622Z,2.90
2023-04-10T11:08:40.692Z,2.80
2023-04-10T11:11:15.756Z,2.88
2023-04-10T11:13:49.901Z,2.90
2023-04-10T11:16:17.096Z,2.50
2023-04-10T11:18:59.353Z,2.63
2023-04-10T11:21:37.327Z,3.20
2023-04-10T11:24:05.834Z,2.70
2023-04-10T11:26:39.437Z,2.80
2023-04-10T11:29:17.146Z,2.78
2023-04-10T11:31:45.958Z,2.65
2023-04-10T11:34:13.078Z,2.60
2023-04-10T11:36:44.891Z,2.72
2023-04-10T11:39:17.859Z,2.45
2023-04-10T11:41:53.969Z,3.08
2023-04-10T11:44:35.466Z,2.53
2023-04-10T11:47:02.933Z,2.67
2023-04-10T11:49:34.676Z,2.53
2023-04-10T11:52:05.091Z,2.70
2023-04-10T11:54:34.492Z,2.17
2023-04-10T11:57:09.150Z,2.13
2023-04-10T11:59:36.535Z,2.40
2023-04-10T12:02:09.454Z,2.30
2023-04-10T12:04:37.420Z,2.10
2023-04-10T12:07:04.813Z,2.25
2023-04-10T12:09:32.314Z,2.40
2023-04-10T12:12:05.040Z,2.40
2023-04-10T12:14:33.327Z,2.63
2023-04-10T12:17:02.721Z,2.38
2023-04-10T12:19:31.049Z,2.30
2023-04-10T12:21:59.814Z,2.30
2023-04-10T12:24:53.632Z,2.15
2023-04-10T12:27:26.996Z,2.40
2023-04-10T12:29:58.497Z,2.58
2023-04-10T12:32:27.603Z,2.30
2023-04-10T12:34:59.123Z,2.28
2023-04-10T12:37:48.044Z,2.28
2023-04-10T12:40:15.532Z,2.15
2023-04-10T12:42:43.260Z,2.28
2023-04-10T12:45:13.903Z,2.17
2023-04-10T12:47:54.547Z,1.98
2023-04-10T12:50:21.761Z,2.05
2023-04-10T12:53:11.786Z,1.80
2023-04-10T12:55:39.802Z,1.85
2023-04-10T12:58:20.592Z,2.20
2023-04-10T13:00:48.941Z,1.85
2023-04-10T13:03:16.299Z,2.22
2023-04-10T13:05:44.571Z,2.33
2023-04-10T13:08:11.655Z,1.92
2023-04-10T13:10:38.832Z,2.22
2023-04-10T13:13:07.150Z,2.08
2023-04-10T13:15:34.863Z,2.10
2023-04-10T13:18:05.172Z,2.30
2023-04-10T13:20:41.436Z,2.40
2023-04-10T13:23:09.120Z,2.00
2023-04-10T13:25:40.130Z,2.20
2023-04-10T13:28:15.893Z,2.03
2023-04-10T13:30:43.104Z,2.20
2023-04-10T13:33:10.801Z,2.53
2023-04-10T13:35:40.112Z,1.98
2023-04-10T13:38:09.413Z,2.05
2023-04-10T13:40:36.607Z,2.33
2023-04-10T13:43:03.902Z,1.98
2023-04-10T13:45:30.987Z,1.92
2023-04-10T13:47:58.027Z,2.03
2023-04-10T13:50:25.423Z,1.90
2023-04-10T13:52:53.703Z,2.20
2023-04-10T13:55:20.884Z,2.25
2023-04-10T13:57:47.979Z,2.13
2023-04-10T14:00:15.573Z,2.00
2023-04-10T14:02:42.658Z,2.08
2023-04-10T14:05:10.433Z,2.03
2023-04-10T14:07:37.437Z,2.00
2023-04-10T14:10:07.367Z,1.98
2023-04-10T14:12:37.053Z,2.22
2023-04-10T14:15:06.000Z,1.55
2023-04-10T14:17:33.025Z,2.42
2023-04-10T14:20:00.289Z,2.30
2023-04-10T14:22:30.209Z,2.22
2023-04-10T14:25:09.394Z,2.00
2023-04-10T14:27:39.939Z,1.83
2023-04-10T14:30:08.015Z,2.00
2023-04-10T14:32:35.255Z,1.95
2023-04-10T14:35:05.845Z,1.83
2023-04-10T14:37:33.745Z,1.80
2023-04-10T14:40:02.928Z,1.95
2023-04-10T14:42:30.307Z,1.90
2023-04-10T14:44:58.963Z,1.90
2023-04-10T14:47:26.259Z,2.00
2023-04-10T14:49:53.287Z,1.90
2023-04-10T14:52:20.384Z,2.00
2023-04-10T14:54:47.335Z,2.03
2023-04-10T14:57:15.662Z,2.10
2023-04-10T14:59:42.673Z,1.80
2023-04-10T15:02:09.750Z,1.90
2023-04-10T15:04:36.853Z,2.00
2023-04-10T15:07:04.037Z,1.60
2023-04-10T15:09:32.301Z,1.90
2023-04-10T15:11:59.312Z,1.90
2023-04-10T15:14:26.222Z,1.88
2023-04-10T15:16:54.237Z,1.58
2023-04-10T15:19:21.291Z,1.40
2023-04-10T15:21:48.301Z,1.70
2023-04-10T15:24:15.374Z,1.80
2023-04-10T15:26:46.423Z,1.70
2023-04-10T15:29:14.317Z,1.88
2023-04-10T15:31:41.456Z,1.73
2023-04-10T15:34:09.605Z,1.70
2023-04-10T15:36:36.537Z,1.52
2023-04-10T15:39:03.898Z,1.60
2023-04-10T15:41:32.517Z,1.60
2023-04-10T15:43:59.786Z,1.50
2023-04-10T15:46:27.259Z,1.73
2023-04-10T15:48:54.299Z,1.77
2023-04-10T15:51:21.398Z,2.03
2023-04-10T15:53:48.311Z,1.80
2023-04-10T15:56:16.125Z,2.05
2023-04-10T15:58:43.377Z,2.15
2023-04-10T16:01:10.465Z,2.10
2023-04-10T16:03:37.752Z,2.03
2023-04-10T16:06:05.333Z,2.00
2023-04-10T16:08:32.337Z,2.20
2023-04-10T16:10:59.362Z,2.30
2023-04-10T16:13:26.441Z,2.58
2023-04-10T16:15:53.457Z,2.72
2023-04-10T16:18:20.725Z,2.38
2023-04-10T16:20:47.617Z,2.53
2023-04-10T16:23:14.745Z,2.17
2023-04-10T16:25:41.748Z,2.00
2023-04-10T16:28:08.882Z,2.40
2023-04-10T16:30:36.521Z,2.10
2023-04-10T16:33:04.184Z,2.92
2023-04-10T16:35:31.611Z,2.10
2023-04-10T16:37:58.774Z,2.30
2023-04-10T16:40:32.247Z,2.50
2023-04-10T16:43:02.820Z,2.35
2023-04-10T16:45:29.960Z,2.60
2023-04-10T16:47:56.958Z,2.40
2023-04-10T16:50:24.093Z,2.50
2023-04-10T16:52:51.084Z,2.70
2023-04-10T16:55:18.237Z,3.07
2023-04-10T16:57:46.325Z,3.00
2023-04-10T17:00:14.143Z,2.50
2023-04-10T17:02:42.854Z,2.73
2023-04-10T17:05:11.130Z,3.00
2023-04-10T17:07:38.122Z,3.03
2023-04-10T17:10:05.711Z,2.80
2023-04-10T17:12:32.675Z,3.17
2023-04-10T17:14:59.787Z,2.80
2023-04-10T17:17:27.006Z,2.67
2023-04-10T17:19:54.562Z,3.03
2023-04-10T17:22:23.190Z,3.00
2023-04-10T17:24:50.263Z,3.07
2023-04-10T17:27:17.261Z,3.23
2023-04-10T17:29:44.507Z,3.30
2023-04-10T17:32:11.513Z,3.07
2023-04-10T17:34:38.571Z,3.50
2023-04-10T17:37:05.493Z,3.10
2023-04-10T17:39:32.578Z,3.43
2023-04-10T17:41:59.457Z,3.43
2023-04-10T17:44:26.322Z,3.70
2023-04-10T17:46:54.159Z,3.20
2023-04-10T17:49:22.169Z,3.00
2023-04-10T17:51:49.830Z,3.10
2023-04-10T17:54:16.946Z,2.60
2023-04-10T17:56:44.051Z,2.90
2023-04-10T17:59:11.059Z,2.70
2023-04-10T18:01:38.401Z,2.97
2023-04-10T18:04:05.661Z,2.60
2023-04-10T18:06:33.171Z,2.57
2023-04-10T18:09:00.379Z,2.37
2023-04-10T18:11:28.465Z,2.27
2023-04-10T18:13:55.493Z,1.87
2023-04-10T18:16:23.593Z,2.00
2023-04-10T18:18:50.599Z,2.13
2023-04-10T18:21:17.524Z,2.10
2023-04-10T18:23:44.677Z,1.83
2023-04-10T18:26:12.296Z,1.87
2023-04-10T18:28:39.579Z,1.87
2023-04-10T18:31:08.386Z,1.60
2023-04-10T18:33:35.653Z,1.90
2023-04-10T18:36:03.536Z,1.70
2023-04-10T18:38:30.881Z,1.63
2023-04-10T18:40:58.309Z,1.60
2023-04-10T18:43:27.504Z,1.57
2023-04-10T18:45:55.454Z,1.60
2023-04-10T18:48:23.590Z,1.40
2023-04-10T18:50:53.812Z,1.50
2023-04-10T18:53:22.414Z,1.50
2023-04-10T18:55:54.221Z,1.37
2023-04-10T18:58:22.177Z,1.53
2023-04-10T19:00:49.196Z,1.33
2023-04-10T19:03:16.634Z,1.60
2023-04-10T19:05:43.912Z,1.40
2023-04-10T19:08:17.027Z,1.40
2023-04-10T19:10:44.313Z,1.50
2023-04-10T19:13:12.867Z,1.43
2023-04-10T19:15:46.624Z,1.40
2023-04-10T19:18:15.069Z,1.20
2023-04-10T19:20:51.209Z,1.30
2023-04-10T19:23:21.408Z,1.30
2023-04-10T19:25:53.494Z,1.43
2023-04-10T19:28:20.988Z,1.40
2023-04-10T19:30:47.964Z,1.70
2023-04-10T19:33:19.281Z,1.60
2023-04-10T19:35:46.790Z,1.60
2023-04-10T19:38:13.873Z,1.40
2023-04-10T19:40:40.971Z,1.40
2023-04-10T19:43:08.014Z,2.10
2023-04-10T19:45:38.302Z,1.50
2023-04-10T19:48:08.148Z,1.87
2023-04-10T19:50:35.114Z,1.60
2023-04-10T19:53:02.383Z,1.73
2023-04-10T19:55:31.770Z,1.40
2023-04-10T19:57:59.297Z,1.70
2023-04-10T20:00:26.574Z,1.53
2023-04-10T20:02:54.390Z,1.40
2023-04-10T20:05:21.875Z,1.50
2023-04-10T20:07:49.068Z,1.40
2023-04-10T20:10:16.460Z,1.37
2023-04-10T20:12:43.419Z,1.40
2023-04-10T20:15:11.265Z,1.43
2023-04-10T20:17:38.569Z,1.47
2023-04-10T20:20:06.410Z,1.67
2023-04-10T20:22:33.584Z,1.83
2023-04-10T20:25:00.786Z,1.70
2023-04-10T20:27:27.881Z,1.90
2023-04-10T20:29:54.814Z,1.90
2023-04-10T20:32:21.983Z,1.67
2023-04-10T20:34:49.171Z,2.17
2023-04-10T20:37:21.690Z,1.70
2023-04-10T20:39:50.284Z,1.60
2023-04-10T20:42:17.758Z,1.83
2023-04-10T20:44:44.816Z,2.03
2023-04-10T20:47:12.027Z,2.30
2023-04-10T20:49:39.212Z,2.10
2023-04-10T20:52:06.932Z,2.00
2023-04-10T20:54:34.185Z,2.50
2023-04-10T20:57:01.992Z,1.80
2023-04-10T20:59:32.973Z,2.47
2023-04-10T21:02:00.150Z,2.10
2023-04-10T21:04:27.974Z,2.60
2023-04-10T21:06:55.161Z,2.60
2023-04-10T21:09:22.191Z,2.00
2023-04-10T21:11:49.142Z,2.47
2023-04-10T21:14:16.891Z,2.60
2023-04-10T21:16:45.817Z,2.60
2023-04-10T21:19:13.532Z,2.40
2023-04-10T21:21:40.603Z,2.60
2023-04-10T21:24:07.640Z,2.43
2023-04-10T21:26:34.821Z,2.57
2023-04-10T21:29:02.509Z,2.63
2023-04-10T21:31:29.668Z,2.30
2023-04-10T21:33:56.716Z,2.77
2023-04-10T21:36:23.809Z,2.00
2023-04-10T21:38:50.961Z,2.47
2023-04-10T21:41:19.417Z,2.13
2023-04-10T21:43:46.460Z,3.10
2023-04-10T21:46:13.650Z,2.33
2023-04-10T21:48:41.516Z,2.10
2023-04-10T21:51:09.420Z,1.97
2023-04-10T21:53:36.350Z,2.47
2023-04-10T21:56:03.467Z,2.20
2023-04-10T21:58:32.283Z,2.40
2023-04-10T22:01:01.106Z,2.53
2023-04-10T22:03:28.494Z,2.60
2023-04-10T22:05:55.552Z,2.50
2023-04-10T22:08:22.586Z,2.60
2023-04-10T22:10:50.533Z,2.97
2023-04-10T22:13:29.514Z,2.30
2023-04-10T22:15:59.972Z,2.77
2023-04-10T22:18:27.534Z,2.80
2023-04-10T22:20:54.846Z,2.63
2023-04-10T22:23:21.920Z,2.33
2023-04-10T22:25:49.002Z,2.70
2023-04-10T22:28:16.207Z,2.60
2023-04-10T22:30:43.290Z,3.07
2023-04-10T22:33:10.823Z,3.17
2023-04-10T22:35:38.170Z,2.93
2023-04-10T22:38:05.205Z,3.00
2023-04-10T22:40:32.164Z,2.87
2023-04-10T22:42:59.367Z,2.77
2023-04-10T22:45:26.355Z,3.30
2023-04-10T22:47:53.354Z,3.13
2023-04-10T22:50:21.082Z,3.63
2023-04-10T22:52:48.237Z,3.40
2023-04-10T22:55:15.381Z,3.20
2023-04-10T22:57:42.466Z,3.20
2023-04-10T23:00:10.113Z,2.97
2023-04-10T23:02:37.992Z,2.53
2023-04-10T23:05:05.624Z,3.40
2023-04-10T23:07:32.846Z,2.80
2023-04-10T23:10:00.794Z,3.10
2023-04-10T23:12:27.863Z,3.10
2023-04-10T23:14:54.790Z,3.40
2023-04-10T23:17:21.962Z,3.47
2023-04-10T23:19:48.943Z,3.63
2023-04-10T23:22:16.293Z,3.17
2023-04-10T23:24:43.312Z,3.00
2023-04-10T23:27:10.323Z,3.40
2023-04-10T23:29:37.253Z,3.60
2023-04-10T23:32:04.423Z,3.20
2023-04-10T23:34:31.278Z,3.63
2023-04-10T23:36:58.371Z,3.10
2023-04-10T23:39:25.463Z,3.40
2023-04-10T23:41:52.731Z,3.20
2023-04-10T23:44:19.780Z,3.10
2023-04-10T23:46:47.035Z,3.53
2023-04-10T23:49:14.065Z,3.50
2023-04-10T23:51:41.077Z,3.77
2023-04-10T23:54:08.219Z,3.40
2023-04-10T23:56:35.439Z,3.57
2023-04-10T23:59:02.658Z,3.23
